Largo, MD

10:30 PM EST on March 04, 2015 (GMT -0500)
Washington | Change Station
CLOSE
Current Station
Airport
Location: Washington,
Elevation: 13 ft
Nearby Weather Stations
Active Advisory: Winter Storm Warning

Elev 13 ft 38.85 °N, 77.03 °W | Updated 7 minutes ago

Rain
Rain
46 °F
Feels Like 43 °F
N
7
Wind Variable Wind from North

Today
High -- | Low -- °F
--% Chance of Precip.
Yesterday
High -- | Low -- °F
Precip. -- in
6:35 AM 6:02 PM
Full, 100% visible
Pressure 29.96 in
Visibility 3.0 miles
Clouds Scattered Clouds 600 ft
Mostly Cloudy 1800 ft
Overcast 3800 ft
Windchill 43 °F
Dew Point 43 °F
Humidity 87%
Rainfall 0.24 in
Snow Depth Not available.
UV 0 out of 12
Pollen .70 out of 12
Air Quality Not available.
Flu Activity Not available.
SPECI KDCA 050323Z 36006KT 3SM -RA BR SCT006 BKN018 OVC038 08/06 A2996 RMK AO2 P0004

More Conditions Fewer Conditions

Pressure 29.96 in
Visibility 3.0 miles
Clouds Scattered Clouds 600 ft
Mostly Cloudy 1800 ft
Overcast 3800 ft
Windchill 43 °F
Dew Point 43 °F
Humidity 87%
Rainfall 0.24 in
Snow Depth Not available.
UV 0 out of 12
Pollen .70 out of 12
Air Quality Not available.
Flu Activity Not available.
SPECI KDCA 050323Z 36006KT 3SM -RA BR SCT006 BKN018 OVC038 08/06 A2996 RMK AO2 P0004

More Conditions Fewer Conditions

10-Day Weather Forecast

Almanac

Astronomy

Mar. 04, 2015 Rise Set
Actual Time
Civil Twilight
Nautical Twilight
Astronomical Twilight
Moon
Length of Visible Light
Length of Day
Tomorrow will be .
, % of the Moon is Illuminated

Today's Extremes

State Highs State Lows

Community

WunderPhotos

Upload Photos

1,802,652 photos uploaded!

WunderBlogs® & News

Nearby

Air Quality

  Air Quality AQ Index Pollutant
Not available.

Snow Depth

Station Depth Elevation

Earthquake Activity

City Distance Mag. Time & Date
Minimum magnitude displayed is 2.5.

Coastal Water Temperatures

Place Temperature

Nearby Weather Stations

Winter Storm Warning
Statement as of 10:21 PM EST on March 04, 2015

... Winter Storm Warning remains in effect until 9 PM EST
Thursday...

* precipitation types... wintry mix... then all snow... heavy at
times.

* Accumulations... snow accumulation of 4 to 8 inches.

* Timing... rain changes to wintry mix after midnight then all snow
Thursday. Snow heaviest Thursday late morning through mid
afternoon.

* Temperatures... in the mid 30s... dropping into the lower 20s.

* Winds... north 10 to 15 mph with gusts up to 20 mph.

* Impacts... roads will be snow covered... visibilities will drop
to around a quarter-mile at times... making travel dangerous.

Precautionary/preparedness actions...

A Winter Storm Warning for heavy snow means severe winter weather
conditions are expected or occurring. Significant amounts of snow
are forecast that will make travel dangerous. Only travel in an
emergency. If you must travel... keep an extra flashlight...
food... and water in your vehicle in case of an emergency.